WEATHER DATA

YESTERDAY
Time Temp. Dewp. Hum. Bar.
00:03 8 6.3 89 1023.3
00:13 7.7 6.2 90 1023.2
00:23 7.5 6.3 92 1023.2
00:33 7.3 6.1 92 1023.3
00:43 7 5.8 92 1023.4
00:53 6.7 5.6 93 1023.5
01:03 6.6 5.6 93 1023.5
01:14 6.4 5.5 94 1023.7
01:23 6.3 5.6 95 1023.6
01:33 6.2 5.5 95 1023.8
01:44 6.2 5.6 96 1023.6
01:54 6.3 5.9 97 1023.7
02:03 6.6 6.3 98 1023.7
02:13 7 6.9 99 1023.8
02:24 7.3 7 98 1023.7
02:34 7.6 7 96 1023.8
02:43 7.8 7.1 95 1023.9
02:54 7.9 7 94 1023.7
03:04 8 7.1 94 1023.9
03:14 8.1 7.2 94 1024
03:24 8.2 7.1 93 1023.9
03:34 8.2 7.1 93 1024.1
03:44 8.3 7.2 93 1024.2
03:54 8.4 7.2 92 1024.2
04:04 8.4 7.2 92 1024.4
04:14 8.5 7.3 92 1024.3
04:24 8.5 7.3 92 1024.3
04:34 8.5 7.3 92 1024.4
04:45 8.5 7.3 92 1024.3
04:54 8.5 7.3 92 1024.6
05:04 8.4 7.2 92 1024.8
05:15 8.4 7.3 93 1024.8
05:24 8.4 7.3 93 1024.8
05:34 8.4 7.3 93 1025.1
05:44 8.4 7.3 93 1025
05:55 8.3 7.4 94 1025.1
06:04 8.3 7.4 94 1025.2
06:14 8.3 7.4 94 1025.3
06:25 8.3 7.4 94 1025.4
06:35 8.2 7.4 95 1025.4
06:44 8.3 7.5 95 1025.6
06:55 8.3 7.5 95 1025.7
07:05 8.4 7.8 96 1025.8
07:15 8.6 8 96 1025.8
07:24 8.8 8.2 96 1025.9
07:35 8.9 8.1 95 1026
07:45 8.9 8 94 1026.2
07:55 9.1 8.2 94 1026.2
08:05 9.4 8.5 94 1026.2
08:15 9.6 8.2 91 1026.5
08:25 9.7 8 89 1026.7
08:35 9.6 7.7 88 1026.7
08:46 9.6 7.5 87 1026.8
08:55 9.6 7.7 88 1026.8
09:05 9.7 7.8 88 1026.8
09:16 10 8.1 88 1026.8
09:26 10.3 8.2 87 1027
09:36 10.4 8 85 1027.2
09:45 10.6 8.2 85 1027.3
09:56 10.7 8.1 84 1027.3
10:06 11.1 8.3 83 1027.3
10:16 11.5 8.4 81 1027.4
10:26 11.5 7.8 78 1027.5
10:36 11.4 7.9 79 1027.5
10:46 11.7 8.6 81 1027.2
10:56 12 7.9 76 1027.5
11:06 11.7 7.6 76 1027.5
11:16 11.6 7.9 78 1027.6
11:26 11.9 8.2 78 1027.6
11:36 12.3 8.4 77 1027.6
11:46 12.7 8.4 75 1027.5
11:56 13.4 9.5 77 1027.5
12:06 14 8.8 71 1027.6
12:17 13.8 9.1 73 1027.6
12:27 13.5 9 74 1027.5
12:36 13.3 8.8 74 1027.5
12:47 13 8.9 76 1027.6
12:57 12.4 8.5 77 1027.7
13:07 11.8 7.9 77 1027.7
13:16 11.3 7.6 78 1027.5
13:27 11 7.5 79 1027.6
13:37 10.6 6.9 78 1027.5
13:47 10.5 6.6 77 1027.5
13:57 10.5 6.6 77 1027.5
14:07 10.6 6.7 77 1027.5
14:17 11.2 7.3 77 1027.4
14:27 11.8 7.5 75 1027.5
14:37 12.2 7.9 75 1027.3
14:47 13.1 8.2 72 1027.3
14:57 13.5 8.8 73 1027.3
15:07 13.4 8.5 72 1027.2
15:18 13.6 8.9 73 1027.3
15:27 14.2 9.4 73 1027.4
15:37 15 9.4 69 1027.2
15:48 14.4 8.8 69 1027.3
15:57 13.6 8.2 70 1027.2
16:07 12.9 8 72 1027.2
16:18 12.4 7.9 74 1027.2
16:28 12 7.5 74 1027.1
16:38 11.5 7.2 75 1027.1
16:48 11.2 7.1 76 1027
16:58 10.8 6.7 76 1027
17:08 10.5 6.5 76 1027.1
17:18 10.1 6.3 77 1027.2
17:28 9.7 6.1 78 1027.2
17:38 9.2 5.6 78 1027.1
17:48 8.6 5.2 79 1027.5
17:58 8 4.6 79 1027.5
18:09 7.5 4.3 80 1027.5
18:19 7 4 81 1027.6
18:28 6.6 3.8 82 1027.6
18:39 6.1 3.3 82 1027.7
18:49 5.6 2.9 83 1027.7
18:59 5.2 2.7 84 1027.7
19:09 4.9 2.8 86 1027.7
19:19 4.6 2.5 86 1028
19:29 4.2 2.2 87 1028.1
19:39 3.9 2.1 88 1028.1
19:49 3.7 2.1 89 1028.3
19:59 3.5 2 90 1028.3
20:09 3.3 1.8 90 1028.3
20:19 3.1 1.8 91 1028.1
20:30 2.9 1.7 92 1028.2
20:39 2.9 1.9 93 1028
20:49 3 2.1 94 1027.8
20:59 3 2.1 94 1027.8
21:09 2.9 2 94 1028
21:19 2.8 1.9 94 1028
21:29 2.6 1.7 94 1028.1
21:40 2.4 1.5 94 1027.8
21:49 2.3 1.6 95 1028
21:59 2.4 1.7 95 1027.8
22:10 2.4 1.8 96 1027.8
22:20 2.4 1.8 96 1028
22:29 2.3 1.7 96 1028
22:39 2.2 1.6 96 1027.8
22:50 2.1 1.5 96 1027.8
23:00 2 1.3 95 1027.8
23:09 1.8 1.1 95 1027.8
23:30 1.6 1 96 1027.4
23:40 1.7 1.3 97 1027.6
23:50 1.6 1.2 97 1027.8

DAY STATISTIC

2019-03-23
TEMPERATURE
AVERAGE
8.4
HIGH
15.0
15:37
LOW
1.6
23:30
PRESSURE
AVERAGE
1026.5
HIGH
1028.3
19:49
LOW
1023.2
00:13
DEWPOINT
AVERAGE
6.2
HIGH
9.5
11:56
LOW
1.0
23:30
HUMIDITY
AVERAGE
87
HIGH
99
02:13
LOW
69
15:37
TEMPERATURE (°C)
LOW
1.6
HIGH
15.0
AVERAGE
8.4
PRESSURE (hpa)
LOW
1023.2
HIGH
1028.3
AVERAGE
1026.5
DEVICE